createdAt,value
2018-11-12T00:16:12.709Z,11.4
2018-11-12T00:32:52.872Z,11.4
2018-11-12T00:49:32.948Z,11.4
2018-11-12T01:06:13.047Z,11.4
2018-11-12T01:22:53.063Z,11.4
2018-11-12T01:39:32.987Z,11.0
2018-11-12T01:56:12.822Z,11.0
2018-11-12T02:12:52.655Z,11.0
2018-11-12T02:29:32.401Z,11.0
2018-11-12T02:46:12.054Z,11.0
2018-11-12T03:02:51.890Z,11.0
2018-11-12T03:19:31.717Z,11.0
2018-11-12T03:36:11.599Z,11.0
2018-11-12T03:52:51.427Z,11.0
2018-11-12T04:09:31.270Z,11.0
2018-11-12T04:26:11.156Z,11.0
2018-11-12T04:42:51.011Z,11.0
2018-11-12T04:59:30.802Z,11.0
2018-11-12T05:16:10.560Z,10.7
2018-11-12T05:49:29.963Z,10.7
2018-11-12T06:06:09.739Z,10.7
2018-11-12T06:22:49.474Z,10.7
2018-11-12T06:39:29.013Z,10.7
2018-11-12T06:56:08.663Z,10.7
2018-11-12T07:12:48.528Z,10.7
2018-11-12T07:29:28.381Z,10.7
2018-11-12T07:46:08.191Z,11.0
2018-11-12T08:02:48.146Z,11.0
2018-11-12T08:19:27.965Z,10.7
2018-11-12T08:36:07.833Z,11.0
2018-11-12T08:52:47.809Z,11.0
2018-11-12T09:09:27.663Z,11.0
2018-11-12T09:26:07.729Z,11.0
2018-11-12T09:42:47.936Z,11.4
2018-11-12T09:59:28.675Z,12.0
2018-11-12T10:16:11.499Z,11.7
2018-11-12T10:32:49.723Z,12.0
2018-11-12T10:49:30.601Z,12.3
2018-11-12T11:06:12.427Z,12.3
2018-11-12T11:22:53.267Z,12.3
2018-11-12T11:39:34.670Z,12.6
2018-11-12T11:56:16.417Z,13.0
2018-11-12T12:13:00.752Z,13.3
2018-11-12T13:03:04.378Z,13.0
2018-11-12T13:36:27.602Z,12.6
2018-11-12T13:53:09.169Z,12.6
2018-11-12T14:09:50.403Z,12.3
2018-11-12T14:26:31.637Z,12.3
2018-11-12T14:43:12.849Z,12.3
2018-11-12T14:59:53.878Z,12.0
2018-11-12T15:16:35.022Z,12.3
2018-11-12T15:33:16.150Z,12.0
2018-11-12T15:49:57.250Z,12.0
2018-11-12T16:06:38.423Z,12.0
2018-11-12T16:23:19.249Z,12.0
2018-11-12T16:56:40.956Z,12.0
2018-11-12T17:13:21.886Z,12.0
2018-11-12T17:30:02.767Z,11.7
2018-11-12T17:46:43.590Z,11.7
2018-11-12T18:03:24.889Z,11.7
2018-11-12T18:20:04.614Z,11.7
2018-11-12T18:36:44.719Z,11.4
2018-11-12T18:53:24.805Z,11.4
2018-11-12T19:26:44.900Z,11.4
2018-11-12T19:43:24.972Z,11.0
2018-11-12T20:00:04.817Z,11.0
2018-11-12T20:16:44.584Z,11.0
2018-11-12T20:33:24.413Z,11.0
2018-11-12T20:50:04.147Z,11.0
2018-11-12T21:06:43.941Z,11.0
2018-11-12T21:23:23.567Z,10.7
2018-11-12T21:40:03.519Z,10.7
2018-11-12T21:56:42.755Z,10.7
2018-11-12T22:13:22.358Z,10.7
2018-11-12T22:30:01.931Z,10.7
2018-11-12T22:46:41.397Z,10.7
2018-11-12T23:03:20.847Z,10.7
2018-11-12T23:20:00.289Z,10.4
2018-11-12T23:36:39.657Z,10.4
2018-11-12T23:53:19.104Z,10.7
